createdAt,value
2024-03-06T00:00:12.835Z,13.13
2024-03-06T00:02:42.921Z,13.09
2024-03-06T00:05:10.229Z,13.14
2024-03-06T00:07:37.569Z,13.11
2024-03-06T00:10:05.669Z,13.17
2024-03-06T00:12:35.863Z,13.19
2024-03-06T00:15:03.777Z,13.14
2024-03-06T00:17:36.836Z,13.14
2024-03-06T00:20:05.911Z,13.12
2024-03-06T00:22:32.913Z,13.10
2024-03-06T00:25:03.476Z,13.08
2024-03-06T00:27:30.436Z,13.05
2024-03-06T00:30:01.569Z,12.99
2024-03-06T00:32:29.205Z,12.96
2024-03-06T00:34:56.419Z,13.00
2024-03-06T00:37:26.248Z,13.03
2024-03-06T00:39:53.206Z,13.00
2024-03-06T00:42:23.274Z,12.98
2024-03-06T00:44:53.389Z,12.93
2024-03-06T00:47:23.316Z,12.96
2024-03-06T00:49:53.334Z,12.90
2024-03-06T00:52:20.284Z,12.95
2024-03-06T00:54:50.307Z,12.91
2024-03-06T00:57:23.303Z,12.88
2024-03-06T00:59:50.280Z,12.93
2024-03-06T01:02:23.845Z,12.90
2024-03-06T01:04:57.043Z,12.90
2024-03-06T01:07:26.956Z,12.86
2024-03-06T01:09:57.767Z,12.78
2024-03-06T01:12:24.704Z,12.83
2024-03-06T01:14:57.535Z,12.87
2024-03-06T01:17:30.779Z,12.86
2024-03-06T01:20:01.994Z,12.82
2024-03-06T01:22:28.951Z,12.83
2024-03-06T01:24:59.958Z,12.84
2024-03-06T01:27:32.763Z,12.79
2024-03-06T01:30:02.113Z,12.82
2024-03-06T01:32:33.932Z,12.84
2024-03-06T01:35:16.127Z,12.85
2024-03-06T01:37:49.366Z,12.82
2024-03-06T01:40:19.476Z,12.78
2024-03-06T01:42:49.356Z,12.62
2024-03-06T01:45:25.505Z,12.56
2024-03-06T01:47:53.168Z,12.61
2024-03-06T01:50:23.208Z,12.65
2024-03-06T01:52:53.095Z,12.60
2024-03-06T01:55:23.069Z,12.57
2024-03-06T01:57:53.387Z,12.63
2024-03-06T02:00:21.382Z,12.63
2024-03-06T02:02:54.861Z,12.65
2024-03-06T02:05:22.427Z,12.67
2024-03-06T02:07:54.440Z,12.67
2024-03-06T02:10:24.336Z,12.65
2024-03-06T02:12:58.388Z,12.62
2024-03-06T02:15:28.558Z,12.58
2024-03-06T02:18:05.437Z,12.61
2024-03-06T02:20:34.646Z,12.62
2024-03-06T02:23:01.708Z,12.58
2024-03-06T02:25:28.775Z,12.52
2024-03-06T02:28:01.678Z,12.55
2024-03-06T02:30:30.836Z,12.53
2024-03-06T02:33:04.594Z,12.53
2024-03-06T02:35:32.965Z,12.48
2024-03-06T02:38:05.277Z,12.51
2024-03-06T02:40:32.289Z,12.47
2024-03-06T02:43:07.976Z,12.45
2024-03-06T02:45:34.935Z,12.49
2024-03-06T02:48:03.548Z,12.46
2024-03-06T02:50:30.476Z,12.47
2024-03-06T02:53:00.446Z,12.48
2024-03-06T02:55:35.990Z,12.42
2024-03-06T02:58:03.392Z,12.40
2024-03-06T03:00:31.876Z,12.41
2024-03-06T03:03:04.092Z,12.43
2024-03-06T03:05:34.084Z,12.43
2024-03-06T03:08:07.532Z,12.41
2024-03-06T03:10:34.979Z,12.34
2024-03-06T03:13:05.363Z,12.38
2024-03-06T03:15:35.348Z,12.40
2024-03-06T03:18:02.361Z,12.35
2024-03-06T03:20:31.296Z,12.29
2024-03-06T03:23:01.407Z,12.26
2024-03-06T03:25:31.603Z,12.31
2024-03-06T03:27:59.384Z,12.29
2024-03-06T03:30:38.083Z,12.25
2024-03-06T03:33:11.123Z,12.29
2024-03-06T03:35:41.320Z,12.26
2024-03-06T03:38:08.331Z,12.26
2024-03-06T03:40:53.689Z,12.27
2024-03-06T03:43:29.610Z,12.25
2024-03-06T03:45:56.845Z,12.22
2024-03-06T03:48:24.028Z,12.23
2024-03-06T03:50:51.284Z,12.19
2024-03-06T03:53:18.756Z,12.18
2024-03-06T03:55:48.874Z,12.10
2024-03-06T03:58:16.778Z,12.14
2024-03-06T04:00:44.648Z,12.21
2024-03-06T04:03:11.874Z,12.18
2024-03-06T04:05:42.013Z,12.21
2024-03-06T04:08:12.079Z,12.20
2024-03-06T04:10:45.477Z,12.11
2024-03-06T04:13:12.912Z,12.11
2024-03-06T04:15:43.642Z,12.10
2024-03-06T04:18:13.842Z,12.12
2024-03-06T04:20:41.068Z,12.12
2024-03-06T04:23:08.266Z,12.13
2024-03-06T04:25:41.706Z,12.13
2024-03-06T04:28:08.980Z,12.11
2024-03-06T04:30:36.203Z,12.11
2024-03-06T04:33:04.886Z,12.12
2024-03-06T04:35:41.361Z,12.11
2024-03-06T04:38:11.604Z,12.09
2024-03-06T04:40:41.994Z,12.06
2024-03-06T04:43:13.676Z,12.08
2024-03-06T04:45:40.900Z,12.08
2024-03-06T04:48:11.551Z,12.04
2024-03-06T04:50:45.367Z,12.06
2024-03-06T04:53:12.734Z,12.01
2024-03-06T04:55:39.981Z,12.00
2024-03-06T04:58:10.457Z,12.00
2024-03-06T05:00:43.470Z,11.92
2024-03-06T05:59:12.760Z,11.77
2024-03-06T06:01:40.098Z,11.79
2024-03-06T06:04:10.516Z,11.75
2024-03-06T06:06:38.017Z,11.78
2024-03-06T06:09:06.004Z,11.76
2024-03-06T06:11:36.402Z,11.74
2024-03-06T06:14:06.713Z,11.73
2024-03-06T06:16:38.158Z,11.70
2024-03-06T06:19:06.000Z,11.74
2024-03-06T06:21:36.417Z,11.74
2024-03-06T06:24:08.480Z,11.73
2024-03-06T06:26:38.166Z,11.68
2024-03-06T06:29:08.643Z,11.78
2024-03-06T06:31:44.929Z,11.80
2024-03-06T06:34:12.179Z,11.79
2024-03-06T06:36:41.336Z,11.74
2024-03-06T06:39:12.783Z,11.78
2024-03-06T06:41:40.657Z,11.81
2024-03-06T06:44:07.644Z,11.71
2024-03-06T06:46:34.621Z,11.76
2024-03-06T06:49:07.351Z,11.78
2024-03-06T06:51:34.257Z,11.83
2024-03-06T06:54:01.298Z,11.85
2024-03-06T06:56:33.062Z,11.82
2024-03-06T06:59:03.157Z,11.78
2024-03-06T07:01:33.625Z,11.83
2024-03-06T07:04:00.583Z,11.88
2024-03-06T07:06:33.323Z,11.93
2024-03-06T07:09:00.188Z,11.82
2024-03-06T07:11:27.200Z,11.80
2024-03-06T07:13:57.614Z,11.83
2024-03-06T07:16:26.782Z,11.84
2024-03-06T07:19:05.830Z,11.88
2024-03-06T07:21:32.733Z,11.88
2024-03-06T07:24:00.684Z,11.96
2024-03-06T07:26:30.890Z,12.04
2024-03-06T07:28:59.407Z,12.12
2024-03-06T07:31:26.628Z,12.14
2024-03-06T07:33:59.715Z,12.23
2024-03-06T07:36:32.759Z,12.42
2024-03-06T07:38:59.650Z,12.48
2024-03-06T07:41:26.591Z,12.46
2024-03-06T07:43:56.373Z,12.38
2024-03-06T07:46:41.351Z,12.40
2024-03-06T07:49:10.672Z,12.34
2024-03-06T07:51:46.905Z,12.40
2024-03-06T07:54:19.785Z,12.40
2024-03-06T07:56:57.349Z,12.41
2024-03-06T07:59:24.331Z,12.41
2024-03-06T08:01:52.887Z,12.04
2024-03-06T08:04:19.805Z,12.21
2024-03-06T08:06:47.130Z,12.20
2024-03-06T08:09:14.504Z,12.25
2024-03-06T08:11:49.595Z,12.35
2024-03-06T08:14:22.167Z,11.84
2024-03-06T08:16:53.596Z,11.97
2024-03-06T08:19:27.042Z,11.84
2024-03-06T08:21:53.985Z,12.19
2024-03-06T08:24:24.555Z,12.39
2024-03-06T08:26:51.575Z,12.16
2024-03-06T08:29:28.046Z,12.42
2024-03-06T08:31:58.476Z,12.54
2024-03-06T08:34:26.147Z,12.65
2024-03-06T08:36:58.628Z,12.59
2024-03-06T08:39:25.555Z,11.49
2024-03-06T08:42:12.788Z,10.20
2024-03-06T08:44:39.767Z,10.00
2024-03-06T08:47:10.122Z,10.67
2024-03-06T08:49:40.539Z,10.62
2024-03-06T08:52:09.400Z,10.16
2024-03-06T08:54:41.955Z,9.66
2024-03-06T08:57:09.214Z,10.85
2024-03-06T08:59:36.250Z,10.16
2024-03-06T09:02:15.046Z,9.64
2024-03-06T09:04:43.019Z,9.92
2024-03-06T09:07:14.577Z,10.88
2024-03-06T09:09:44.491Z,10.45
2024-03-06T09:12:12.094Z,10.43
2024-03-06T09:14:39.936Z,11.21
2024-03-06T09:17:09.817Z,10.65
2024-03-06T09:19:38.188Z,10.38
2024-03-06T09:22:05.893Z,11.01
2024-03-06T09:24:35.967Z,11.73
2024-03-06T09:27:05.987Z,11.34
2024-03-06T09:29:36.394Z,10.14
2024-03-06T09:32:04.006Z,10.34
2024-03-06T09:34:34.005Z,11.28
2024-03-06T09:37:01.263Z,11.68
2024-03-06T09:39:28.935Z,12.13
2024-03-06T09:42:02.390Z,11.49
2024-03-06T09:44:32.304Z,11.12
2024-03-06T09:47:10.976Z,10.37
2024-03-06T09:49:41.616Z,11.17
2024-03-06T09:52:14.525Z,11.67
2024-03-06T09:54:44.641Z,12.11
2024-03-06T09:57:13.410Z,12.32
2024-03-06T09:59:46.627Z,11.85
2024-03-06T10:02:35.809Z,12.28
2024-03-06T10:05:06.274Z,12.26
2024-03-06T10:07:33.247Z,12.37
2024-03-06T10:10:10.564Z,12.64
2024-03-06T10:12:37.626Z,12.68
2024-03-06T10:15:05.866Z,12.42
2024-03-06T10:17:32.942Z,11.83
2024-03-06T10:20:17.161Z,12.54
2024-03-06T10:22:44.485Z,12.27
2024-03-06T10:25:21.680Z,12.13
2024-03-06T10:28:05.853Z,12.40
2024-03-06T10:30:33.293Z,12.78
2024-03-06T10:33:10.778Z,12.98
2024-03-06T10:35:38.888Z,13.28
2024-03-06T10:38:08.443Z,13.02
2024-03-06T10:40:37.221Z,13.42
2024-03-06T10:43:06.411Z,13.78
2024-03-06T10:45:48.683Z,13.66
2024-03-06T10:48:17.649Z,12.56
2024-03-06T10:50:46.866Z,12.67
2024-03-06T10:53:20.158Z,13.25
2024-03-06T10:55:57.382Z,12.88
2024-03-06T10:58:25.920Z,12.88
2024-03-06T11:00:58.393Z,13.96
2024-03-06T11:03:31.090Z,14.28
2024-03-06T11:06:07.727Z,13.88
2024-03-06T11:08:35.260Z,13.69
2024-03-06T11:11:23.167Z,13.76
2024-03-06T11:13:51.486Z,13.99
2024-03-06T11:17:02.851Z,13.75
2024-03-06T11:19:30.520Z,13.92
2024-03-06T11:21:58.001Z,14.31
2024-03-06T11:24:32.646Z,14.82
2024-03-06T11:27:07.896Z,14.83
2024-03-06T11:30:14.097Z,13.92
2024-03-06T11:33:13.161Z,14.14
2024-03-06T11:35:45.005Z,13.85
2024-03-06T11:38:12.075Z,13.70
2024-03-06T11:40:45.020Z,13.94
2024-03-06T11:43:42.609Z,14.17
2024-03-06T11:46:13.112Z,13.63
2024-03-06T11:48:40.670Z,13.32
2024-03-06T11:51:07.626Z,14.03
2024-03-06T11:53:35.420Z,13.42
2024-03-06T11:56:02.488Z,13.22
2024-03-06T11:58:32.409Z,12.26
2024-03-06T12:01:00.418Z,13.00
2024-03-06T12:03:27.705Z,13.15
2024-03-06T12:05:57.560Z,13.33
2024-03-06T12:08:24.683Z,13.40
2024-03-06T12:10:58.550Z,13.81
2024-03-06T12:13:25.521Z,13.84
2024-03-06T12:15:58.197Z,13.35
2024-03-06T12:18:25.961Z,12.96
2024-03-06T12:20:56.025Z,13.50
2024-03-06T12:23:26.524Z,13.03
2024-03-06T12:26:09.448Z,13.03
2024-03-06T12:28:36.553Z,12.54
2024-03-06T12:31:13.611Z,12.73
2024-03-06T12:33:57.939Z,13.17
2024-03-06T12:36:26.647Z,13.86
2024-03-06T12:39:04.532Z,13.61
2024-03-06T12:41:36.857Z,13.83
2024-03-06T12:44:04.209Z,13.80
2024-03-06T12:46:31.890Z,13.16
2024-03-06T12:48:58.886Z,13.23
2024-03-06T12:51:26.003Z,13.31
2024-03-06T12:53:53.411Z,13.29
2024-03-06T12:56:22.784Z,13.21
2024-03-06T12:58:49.735Z,13.53
2024-03-06T13:01:16.744Z,13.72
2024-03-06T13:03:44.402Z,13.56
2024-03-06T13:06:17.420Z,13.42
2024-03-06T13:08:44.461Z,13.75
2024-03-06T13:11:16.344Z,13.69
2024-03-06T13:13:43.314Z,13.73
2024-03-06T13:16:14.116Z,13.84
2024-03-06T13:18:41.349Z,13.51
2024-03-06T13:21:08.978Z,13.79
2024-03-06T13:23:35.953Z,14.04
2024-03-06T13:26:03.403Z,13.70
2024-03-06T13:28:33.331Z,13.71
2024-03-06T13:31:03.481Z,13.78
2024-03-06T13:33:30.448Z,14.06
2024-03-06T13:35:57.593Z,14.40
2024-03-06T13:38:31.418Z,14.30
2024-03-06T13:40:58.460Z,14.50
2024-03-06T13:43:32.065Z,14.18
2024-03-06T13:45:59.220Z,13.95
2024-03-06T13:48:26.198Z,14.03
2024-03-06T13:51:02.192Z,14.14
2024-03-06T13:53:29.771Z,13.89
2024-03-06T13:55:59.981Z,13.93
2024-03-06T13:58:32.612Z,13.96
2024-03-06T14:01:02.784Z,13.89
2024-03-06T14:03:29.818Z,13.64
2024-03-06T14:06:02.652Z,13.99
2024-03-06T14:08:36.252Z,13.63
2024-03-06T14:11:05.797Z,13.94
2024-03-06T14:13:33.085Z,14.10
2024-03-06T14:16:03.742Z,14.00
2024-03-06T14:18:34.576Z,14.35
2024-03-06T14:21:07.372Z,14.26
2024-03-06T14:23:35.502Z,14.40
2024-03-06T14:26:05.379Z,14.27
2024-03-06T14:28:32.335Z,14.30
2024-03-06T14:31:02.276Z,14.43
2024-03-06T14:33:32.114Z,13.93
2024-03-06T14:35:59.128Z,13.57
2024-03-06T14:38:26.149Z,12.76
2024-03-06T14:41:06.588Z,12.87
2024-03-06T14:43:34.632Z,12.94
2024-03-06T14:46:10.669Z,12.55
2024-03-06T14:48:37.636Z,12.81
2024-03-06T14:51:05.257Z,12.96
2024-03-06T14:53:32.329Z,13.41
2024-03-06T14:56:03.972Z,13.39
2024-03-06T14:58:36.815Z,13.92
2024-03-06T15:01:04.017Z,13.46
2024-03-06T15:03:30.951Z,13.34
2024-03-06T15:06:04.270Z,13.69
2024-03-06T15:08:35.100Z,13.99
2024-03-06T15:11:15.436Z,13.71
2024-03-06T15:13:42.510Z,14.26
2024-03-06T15:16:13.582Z,14.31
2024-03-06T15:18:41.308Z,14.27
2024-03-06T15:21:14.100Z,14.06
2024-03-06T15:23:41.172Z,14.05
2024-03-06T15:26:11.417Z,14.09
2024-03-06T15:28:39.009Z,13.55
2024-03-06T15:31:05.937Z,13.61
2024-03-06T15:33:33.987Z,13.62
2024-03-06T15:36:01.560Z,13.24
2024-03-06T15:38:28.547Z,13.35
2024-03-06T15:41:04.933Z,13.40
2024-03-06T15:43:38.425Z,13.49
2024-03-06T15:47:25.349Z,13.68
2024-03-06T15:49:59.770Z,13.37
2024-03-06T15:52:29.923Z,12.61
2024-03-06T15:55:02.069Z,12.70
2024-03-06T15:57:32.406Z,12.77
2024-03-06T16:00:03.250Z,13.67
2024-03-06T16:02:30.599Z,13.73
2024-03-06T16:05:08.867Z,13.16
2024-03-06T16:07:47.684Z,13.29
2024-03-06T16:10:32.103Z,13.20
2024-03-06T16:13:08.622Z,13.16
2024-03-06T16:15:39.445Z,13.32
2024-03-06T16:18:06.999Z,13.21
2024-03-06T16:20:43.521Z,13.50
2024-03-06T16:23:13.426Z,13.60
2024-03-06T16:25:40.395Z,13.39
2024-03-06T16:28:10.043Z,13.53
2024-03-06T16:30:36.989Z,13.88
2024-03-06T16:33:07.712Z,13.92
2024-03-06T16:35:34.754Z,14.00
2024-03-06T16:38:04.955Z,13.39
2024-03-06T16:40:37.828Z,13.28
2024-03-06T16:43:04.965Z,13.64
2024-03-06T16:45:34.746Z,13.34
2024-03-06T16:48:09.253Z,13.82
2024-03-06T16:50:46.883Z,13.95
2024-03-06T16:53:17.929Z,13.99
2024-03-06T16:55:47.970Z,14.27
2024-03-06T16:58:21.529Z,14.30
2024-03-06T17:00:48.623Z,13.72
2024-03-06T17:03:15.641Z,14.16
2024-03-06T17:05:45.805Z,14.38
2024-03-06T17:08:16.946Z,14.45
2024-03-06T17:10:44.669Z,14.31
2024-03-06T17:13:19.023Z,14.47
2024-03-06T17:15:46.896Z,14.54
2024-03-06T17:18:14.069Z,14.52
2024-03-06T17:20:44.950Z,14.39
2024-03-06T17:23:11.901Z,14.16
2024-03-06T17:25:41.402Z,14.20
2024-03-06T17:28:14.079Z,14.37
2024-03-06T17:30:41.832Z,14.41
2024-03-06T17:33:08.798Z,14.46
2024-03-06T17:35:47.393Z,14.51
2024-03-06T17:38:17.787Z,14.46
2024-03-06T17:40:47.981Z,14.23
2024-03-06T17:43:15.330Z,14.35
2024-03-06T17:45:44.056Z,14.02
2024-03-06T17:48:16.717Z,14.12
2024-03-06T17:50:56.419Z,14.04
2024-03-06T17:53:29.667Z,14.13
2024-03-06T17:56:00.025Z,13.61
2024-03-06T17:58:26.977Z,13.34
2024-03-06T18:00:53.984Z,12.84
2024-03-06T18:03:25.423Z,13.70
2024-03-06T18:05:59.564Z,13.76
2024-03-06T18:08:32.436Z,14.08
2024-03-06T18:10:59.469Z,13.91
2024-03-06T18:13:27.669Z,13.10
2024-03-06T18:15:54.641Z,13.01
2024-03-06T18:18:24.453Z,12.02
2024-03-06T18:21:01.019Z,12.60
2024-03-06T18:23:33.944Z,13.23
2024-03-06T18:26:01.013Z,12.81
2024-03-06T18:28:36.880Z,12.24
2024-03-06T18:31:13.088Z,13.04
2024-03-06T18:33:42.336Z,12.60
2024-03-06T18:36:12.501Z,12.18
2024-03-06T18:38:39.493Z,11.90
2024-03-06T18:41:24.867Z,11.73
2024-03-06T18:43:54.866Z,11.98
2024-03-06T18:46:24.653Z,12.55
2024-03-06T18:48:54.375Z,12.75
2024-03-06T18:51:27.986Z,13.06
2024-03-06T18:53:57.740Z,13.54
2024-03-06T18:56:27.660Z,11.76
2024-03-06T18:58:57.514Z,12.27
2024-03-06T19:01:27.288Z,12.50
2024-03-06T19:03:57.605Z,12.27
2024-03-06T19:06:24.536Z,12.29
2024-03-06T19:08:59.655Z,11.66
2024-03-06T19:11:26.973Z,11.40
2024-03-06T19:14:02.987Z,12.28
2024-03-06T19:16:33.053Z,11.84
2024-03-06T19:19:01.426Z,11.55
2024-03-06T19:21:28.632Z,12.02
2024-03-06T19:24:04.564Z,12.04
2024-03-06T19:26:33.339Z,11.91
2024-03-06T19:29:04.879Z,12.63
2024-03-06T19:31:36.350Z,12.35
2024-03-06T19:34:03.386Z,12.16
2024-03-06T19:36:39.481Z,11.60
2024-03-06T19:39:13.841Z,12.19
2024-03-06T19:41:40.932Z,12.07
2024-03-06T19:44:08.609Z,11.86
2024-03-06T19:46:38.383Z,11.79
2024-03-06T19:49:05.571Z,12.04
2024-03-06T19:51:32.951Z,13.07
2024-03-06T19:54:04.144Z,13.02
2024-03-06T19:56:40.501Z,13.03
2024-03-06T19:59:10.508Z,12.52
2024-03-06T20:01:43.682Z,12.60
2024-03-06T20:04:13.541Z,12.87
2024-03-06T20:06:42.896Z,12.54
2024-03-06T20:09:14.098Z,12.03
2024-03-06T20:11:45.613Z,12.12
2024-03-06T20:14:15.339Z,11.79
2024-03-06T20:16:42.321Z,11.30
2024-03-06T20:19:12.461Z,11.63
2024-03-06T20:21:43.671Z,12.17
2024-03-06T20:24:13.980Z,13.10
2024-03-06T20:26:41.623Z,12.72
2024-03-06T20:29:15.794Z,13.24
2024-03-06T20:31:45.623Z,12.97
2024-03-06T20:34:15.022Z,13.02
2024-03-06T20:36:46.105Z,12.49
2024-03-06T20:39:16.352Z,12.80
2024-03-06T20:41:43.801Z,13.08
2024-03-06T20:44:14.591Z,12.97
2024-03-06T20:46:45.086Z,13.45
2024-03-06T20:49:21.753Z,13.27
2024-03-06T20:51:48.708Z,13.64
2024-03-06T20:54:16.252Z,13.72
2024-03-06T20:56:43.613Z,13.73
2024-03-06T20:59:11.305Z,13.85
2024-03-06T21:01:38.291Z,13.95
2024-03-06T21:04:06.156Z,13.73
2024-03-06T21:06:33.082Z,13.73
2024-03-06T21:09:07.853Z,13.56
2024-03-06T21:11:34.831Z,13.59
2024-03-06T21:14:07.990Z,13.27
2024-03-06T21:16:39.333Z,13.65
2024-03-06T21:19:07.001Z,13.22
2024-03-06T21:21:33.915Z,13.67
2024-03-06T21:24:04.176Z,13.32
2024-03-06T21:26:34.064Z,13.65
2024-03-06T21:29:01.701Z,13.76
2024-03-06T21:31:34.659Z,13.90
2024-03-06T21:34:05.546Z,13.98
2024-03-06T21:36:33.197Z,13.95
2024-03-06T21:39:07.814Z,13.88
2024-03-06T21:41:36.467Z,13.85
2024-03-06T21:44:06.490Z,13.95
2024-03-06T21:46:33.498Z,13.93
2024-03-06T21:49:07.201Z,13.93
2024-03-06T21:51:34.829Z,13.90
2024-03-06T21:54:01.750Z,13.90
2024-03-06T21:56:31.505Z,13.90
2024-03-06T21:58:58.463Z,13.88
2024-03-06T22:01:28.987Z,13.89
2024-03-06T22:03:55.909Z,13.88
2024-03-06T22:06:48.755Z,13.85
2024-03-06T22:09:16.416Z,13.88
2024-03-06T22:11:43.871Z,13.82
2024-03-06T22:14:13.997Z,13.82
2024-03-06T22:16:41.806Z,13.84
2024-03-06T22:19:08.727Z,13.85
2024-03-06T22:21:44.997Z,13.83
2024-03-06T22:24:15.184Z,13.80
2024-03-06T22:26:42.179Z,13.82
2024-03-06T22:29:12.087Z,13.80
2024-03-06T22:31:39.126Z,13.77
2024-03-06T22:34:08.898Z,13.74
2024-03-06T22:36:36.006Z,13.76
2024-03-06T22:39:06.119Z,13.74
2024-03-06T22:41:42.622Z,13.73
2024-03-06T22:44:09.612Z,13.72
2024-03-06T22:46:47.706Z,13.70
2024-03-06T22:49:21.108Z,13.71
2024-03-06T22:51:48.515Z,13.65
2024-03-06T22:54:16.574Z,13.63
2024-03-06T22:56:44.186Z,13.66
2024-03-06T22:59:15.019Z,13.62
2024-03-06T23:01:44.078Z,13.64
2024-03-06T23:04:14.036Z,13.62
2024-03-06T23:06:43.205Z,13.60
2024-03-06T23:09:13.814Z,13.58
2024-03-06T23:11:41.379Z,13.60
2024-03-06T23:14:11.847Z,13.59
2024-03-06T23:16:41.926Z,13.53
2024-03-06T23:19:09.220Z,13.54
2024-03-06T23:21:39.258Z,13.52
2024-03-06T23:24:08.944Z,13.53
2024-03-06T23:26:43.267Z,13.53
2024-03-06T23:29:17.016Z,13.49
2024-03-06T23:31:44.423Z,13.48
2024-03-06T23:34:14.172Z,13.46
2024-03-06T23:36:41.100Z,13.44
2024-03-06T23:39:11.087Z,13.41
2024-03-06T23:41:38.281Z,13.43
2024-03-06T23:44:14.502Z,13.40
2024-03-06T23:46:42.136Z,13.37
2024-03-06T23:49:09.072Z,13.34
2024-03-06T23:51:36.118Z,13.29
2024-03-06T23:54:08.111Z,13.28
2024-03-06T23:56:35.104Z,13.25
2024-03-06T23:59:04.920Z,13.29
